Time;durP1;ratioP1;P1;durP2;ratioP2;P2;SDS_P1;SDS_P2;PMS_P1;PMS_P2;Temp;Humidity;BMP_temperature;BMP_pressure;BME280_temperature;BME280_humidity;BME280_pressure;Samples;Min_cycle;Max_cycle;Signal;HPM_P1;HPM_P2
2021/01/20 00:01:28;;;;;;;2.33;1.27;;;18.00;64.00;;;;;;10293515;28;20133;-58
2021/01/20 00:06:29;;;;;;;1.73;0.90;;;18.00;63.90;;;;;;10279951;28;20069;-58
2021/01/20 00:11:30;;;;;;;2.13;1.10;;;18.00;63.80;;;;;;10291621;28;20420;-58
2021/01/20 00:16:30;;;;;;;2.15;1.05;;;18.00;63.80;;;;;;10294524;28;20488;-58
2021/01/20 00:21:31;;;;;;;2.33;1.15;;;18.10;63.70;;;;;;10281661;28;20031;-58
2021/01/20 00:26:33;;;;;;;2.83;1.25;;;18.10;63.60;;;;;;10274241;28;20109;-59
2021/01/20 00:31:33;;;;;;;1.90;0.70;;;18.20;63.40;;;;;;10287888;28;20031;-59
2021/01/20 00:36:34;;;;;;;2.92;1.15;;;18.20;63.20;;;;;;10286171;28;20118;-59
2021/01/20 00:41:35;;;;;;;2.30;0.80;;;18.10;63.20;;;;;;10291818;28;20110;-58
2021/01/20 00:46:36;;;;;;;2.85;0.88;;;18.20;63.20;;;;;;10294081;28;20105;-58
2021/01/20 00:51:36;;;;;;;1.35;0.82;;;18.20;63.10;;;;;;10291736;28;20086;-58
2021/01/20 00:56:37;;;;;;;1.42;0.80;;;18.20;63.10;;;;;;10293368;28;20081;-58
2021/01/20 01:01:38;;;;;;;2.78;1.20;;;18.20;63.00;;;;;;10293588;28;20125;-58
2021/01/20 01:06:38;;;;;;;1.40;0.70;;;18.20;62.90;;;;;;10292738;28;20527;-58
2021/01/20 01:11:39;;;;;;;1.92;1.00;;;18.20;62.80;;;;;;10293499;28;20054;-58
2021/01/20 01:16:40;;;;;;;1.33;0.82;;;18.20;62.80;;;;;;10293351;28;20113;-58
2021/01/20 01:21:43;;;;;;;2.03;1.23;;;18.20;62.70;;;;;;10287591;28;20356;-58
2021/01/20 01:26:43;;;;;;;2.35;1.27;;;18.20;62.80;;;;;;10283415;28;20031;-58
2021/01/20 01:31:44;;;;;;;1.65;1.00;;;18.20;62.80;;;;;;10277788;28;20478;-58
2021/01/20 01:36:45;;;;;;;1.70;0.90;;;18.20;62.70;;;;;;10267881;28;20346;-58
2021/01/20 01:41:45;;;;;;;2.33;0.75;;;18.20;62.70;;;;;;10261863;28;20544;-58
2021/01/20 01:46:46;;;;;;;1.83;1.15;;;18.20;62.70;;;;;;10286339;28;20066;-57
2021/01/20 01:51:47;;;;;;;1.77;0.93;;;18.20;62.60;;;;;;10281185;28;20060;-57
2021/01/20 01:56:47;;;;;;;1.35;1.10;;;18.20;62.70;;;;;;10278755;28;20079;-58
2021/01/20 02:01:49;;;;;;;1.65;1.02;;;18.20;62.70;;;;;;10274359;28;20567;-58
2021/01/20 02:06:54;;;;;;;2.00;0.88;;;18.20;62.60;;;;;;10272348;28;20035;-58
2021/01/20 02:12:20;;;;;;;1.52;0.93;;;18.20;62.70;;;;;;10273728;28;20491;-58
2021/01/20 02:17:58;;;;;;;2.22;1.00;;;18.20;62.50;;;;;;10278890;28;20404;-58
2021/01/20 02:23:05;;;;;;;3.50;0.90;;;18.20;62.50;;;;;;10274755;28;20134;-58
2021/01/20 02:28:18;;;;;;;1.17;0.70;;;18.20;62.70;;;;;;10279504;28;20050;-58
2021/01/20 02:33:24;;;;;;;1.88;0.80;;;18.20;62.70;;;;;;10274220;28;20039;-58
2021/01/20 02:38:26;;;;;;;1.60;0.82;;;18.20;62.70;;;;;;10265375;28;20027;-58
2021/01/20 02:43:27;;;;;;;1.52;0.98;;;18.20;62.60;;;;;;10286113;28;20050;-58
2021/01/20 02:48:27;;;;;;;2.30;1.00;;;18.20;62.50;;;;;;10273876;28;20030;-58
2021/01/20 02:53:29;;;;;;;1.83;1.00;;;18.20;62.50;;;;;;10295282;28;20480;-58
2021/01/20 02:58:32;;;;;;;1.40;1.00;;;18.20;62.40;;;;;;10293236;28;20455;-58
2021/01/20 03:03:36;;;;;;;1.88;1.10;;;18.20;62.40;;;;;;10282237;28;20054;-58
2021/01/20 03:08:36;;;;;;;1.17;0.80;;;18.20;62.50;;;;;;10289846;28;20035;-59
2021/01/20 03:13:39;;;;;;;2.42;1.30;;;18.20;62.50;;;;;;10283734;28;20043;-58
2021/01/20 03:18:40;;;;;;;1.60;0.90;;;18.20;62.30;;;;;;10273013;28;20039;-58
2021/01/20 03:23:41;;;;;;;3.55;1.35;;;18.20;62.30;;;;;;10272768;28;20372;-58
2021/01/20 03:28:41;;;;;;;1.02;0.77;;;18.20;62.30;;;;;;10292634;28;20066;-58
2021/01/20 03:33:42;;;;;;;1.30;1.20;;;18.20;62.30;;;;;;10286654;28;20074;-58
2021/01/20 03:38:43;;;;;;;1.65;1.00;;;18.20;62.30;;;;;;10267171;28;20058;-59
2021/01/20 03:43:43;;;;;;;1.85;1.00;;;18.20;62.20;;;;;;10262995;28;20027;-58
2021/01/20 03:48:44;;;;;;;1.30;1.00;;;18.20;62.20;;;;;;10286161;28;20058;-58
2021/01/20 03:53:45;;;;;;;0.98;0.82;;;18.10;62.20;;;;;;10291289;28;20035;-58
2021/01/20 03:58:45;;;;;;;2.13;1.15;;;18.20;62.20;;;;;;10284350;28;20084;-58
2021/01/20 04:03:46;;;;;;;1.55;0.98;;;18.10;62.10;;;;;;10280721;28;20031;-58
2021/01/20 04:08:49;;;;;;;2.10;0.88;;;18.10;62.20;;;;;;10291621;28;20069;-58
2021/01/20 04:13:50;;;;;;;1.77;1.10;;;18.10;62.10;;;;;;10273125;28;20043;-58
2021/01/20 04:18:51;;;;;;;1.77;1.08;;;18.10;62.10;;;;;;10265116;28;20110;-58
2021/01/20 04:23:52;;;;;;;2.17;1.10;;;18.10;62.00;;;;;;10257907;28;20082;-58
2021/01/20 04:28:52;;;;;;;3.67;1.23;;;18.20;62.10;;;;;;10284434;28;20077;-58
2021/01/20 04:33:53;;;;;;;2.05;1.05;;;18.10;62.00;;;;;;10285015;28;20111;-58
2021/01/20 04:38:54;;;;;;;3.63;1.10;;;18.10;62.10;;;;;;10264725;28;20093;-58
2021/01/20 04:43:55;;;;;;;2.10;1.20;;;18.10;62.00;;;;;;10260319;28;20050;-58
2021/01/20 04:48:57;;;;;;;1.50;1.10;;;18.20;62.00;;;;;;10262798;28;20425;-58
2021/01/20 04:53:58;;;;;;;1.80;0.90;;;18.10;62.00;;;;;;10289813;28;20041;-58
2021/01/20 04:58:59;;;;;;;1.90;1.15;;;18.10;62.10;;;;;;10284671;28;20480;-58
2021/01/20 05:04:02;;;;;;;2.72;1.00;;;18.10;62.00;;;;;;10276342;28;20047;-58
2021/01/20 05:09:03;;;;;;;1.52;0.85;;;18.20;62.10;;;;;;10270469;28;20039;-57
2021/01/20 05:14:18;;;;;;;1.75;1.15;;;18.10;62.00;;;;;;10276456;28;20361;-58
2021/01/20 05:19:36;;;;;;;1.40;1.00;;;18.20;61.90;;;;;;10257781;28;20054;-58
2021/01/20 05:24:38;;;;;;;1.42;0.88;;;18.20;61.90;;;;;;10258365;28;20018;-58
2021/01/20 05:29:38;;;;;;;2.15;0.88;;;18.10;62.00;;;;;;10285670;28;20042;-58
2021/01/20 05:34:39;;;;;;;1.58;0.93;;;18.10;62.00;;;;;;10285618;28;20034;-58
2021/01/20 05:39:40;;;;;;;1.40;1.00;;;18.10;61.90;;;;;;10276486;28;20035;-58
2021/01/20 05:45:02;;;;;;;1.77;1.05;;;18.10;61.90;;;;;;10275650;28;20035;-58
2021/01/20 05:50:09;;;;;;;1.83;1.00;;;18.20;61.90;;;;;;10277622;28;20153;-58
2021/01/20 05:55:11;;;;;;;1.95;1.10;;;18.10;61.80;;;;;;10286479;28;20107;-58
2021/01/20 06:00:16;;;;;;;1.25;0.82;;;18.10;61.80;;;;;;10283277;28;20043;-58
2021/01/20 06:05:17;;;;;;;1.08;0.77;;;18.10;61.80;;;;;;10280150;28;20066;-58
2021/01/20 06:10:22;;;;;;;3.17;1.10;;;18.10;61.80;;;;;;10272243;28;20031;-58
2021/01/20 06:15:23;;;;;;;2.08;1.02;;;18.10;61.80;;;;;;10272970;28;20049;-58
2021/01/20 06:20:25;;;;;;;1.33;0.80;;;18.10;61.70;;;;;;10268113;28;20027;-58
2021/01/20 06:25:36;;;;;;;1.60;1.00;;;18.10;61.70;;;;;;10295092;28;20070;-58
2021/01/20 06:30:50;;;;;;;1.90;1.15;;;18.20;61.70;;;;;;10295894;28;20027;-58
2021/01/20 06:35:51;;;;;;;1.40;1.10;;;18.20;61.60;;;;;;10283046;28;20039;-58
2021/01/20 06:40:52;;;;;;;1.65;0.82;;;18.10;61.60;;;;;;10268411;28;20033;-58
2021/01/20 06:46:19;;;;;;;1.52;0.82;;;18.10;61.70;;;;;;10284234;28;20035;-60
2021/01/20 06:51:27;;;;;;;2.47;1.23;;;18.10;62.00;;;;;;10277243;28;20089;-61
2021/01/20 06:56:43;;;;;;;2.60;0.93;;;18.10;63.20;;;;;;10278619;28;20038;-58
2021/01/20 07:02:09;;;;;;;5.65;1.33;;;18.10;63.50;;;;;;10276575;28;20502;-60
2021/01/20 07:07:12;;;;;;;4.45;1.10;;;18.20;64.20;;;;;;10272973;28;20034;-57
2021/01/20 07:12:13;;;;;;;5.25;1.35;;;18.10;63.70;;;;;;10275338;28;20027;-59
2021/01/20 07:17:16;;;;;;;2.60;1.10;;;18.10;64.00;;;;;;10274710;28;20031;-58
2021/01/20 07:22:17;;;;;;;5.07;1.20;;;18.10;63.80;;;;;;10281007;28;20022;-60
2021/01/20 07:27:18;;;;;;;13.35;2.33;;;18.10;63.60;;;;;;10291435;28;20069;-58
2021/01/20 07:32:30;;;;;;;8.45;2.33;;;18.00;63.70;;;;;;10282478;28;20058;-58
2021/01/20 07:37:30;;;;;;;10.55;1.95;;;18.00;63.60;;;;;;10286037;28;20092;-58
2021/01/20 07:42:41;;;;;;;7.47;2.47;;;17.90;63.50;;;;;;10286214;28;20045;-58
2021/01/20 07:47:48;;;;;;;15.63;2.38;;;18.00;63.40;;;;;;10288747;28;20062;-58
2021/01/20 07:52:49;;;;;;;7.68;2.17;;;17.90;63.10;;;;;;10280601;28;20371;-58
2021/01/20 07:57:56;;;;;;;9.52;1.85;;;17.90;63.70;;;;;;10283040;28;20109;-58
2021/01/20 08:03:00;;;;;;;9.77;2.47;;;17.90;63.10;;;;;;10257209;28;584687;-57
2021/01/20 08:08:14;;;;;;;8.02;2.10;;;17.90;63.10;;;;;;10274257;28;20057;-58
2021/01/20 08:13:15;;;;;;;8.38;1.92;;;17.90;63.10;;;;;;10273118;28;20408;-58
2021/01/20 08:18:17;;;;;;;11.07;2.00;;;17.90;63.40;;;;;;10287099;28;20035;-58
2021/01/20 08:23:51;;;;;;;9.85;1.80;;;17.90;63.40;;;;;;10290574;28;20442;-58
2021/01/20 08:29:10;;;;;;;19.65;2.67;;;18.00;63.20;;;;;;10291438;28;20052;-57
2021/01/20 08:34:23;;;;;;;14.23;3.30;;;18.00;63.10;;;;;;10282815;28;20023;-57
2021/01/20 08:39:25;;;;;;;10.98;2.83;;;18.00;63.30;;;;;;10263498;28;20031;-59
2021/01/20 08:44:26;;;;;;;13.40;2.50;;;17.90;63.10;;;;;;10260558;28;20059;-57
2021/01/20 08:49:26;;;;;;;17.33;3.05;;;17.90;63.10;;;;;;10273486;28;20106;-56
2021/01/20 08:54:27;;;;;;;13.52;3.20;;;17.90;63.30;;;;;;10290981;28;20399;-56
2021/01/20 08:59:55;;;;;;;9.38;2.20;;;17.90;63.60;;;;;;10288011;28;20415;-56
2021/01/20 09:04:56;;;;;;;13.02;2.42;;;17.90;63.40;;;;;;10283840;28;20070;-58
2021/01/20 09:09:57;;;;;;;10.75;2.35;;;17.90;63.50;;;;;;10283448;28;20063;-56
2021/01/20 09:14:58;;;;;;;9.88;2.33;;;18.00;63.60;;;;;;10286067;28;20117;-59
2021/01/20 09:19:58;;;;;;;5.75;2.17;;;18.00;63.80;;;;;;10269463;28;20015;-58
2021/01/20 09:24:59;;;;;;;6.05;1.92;;;18.10;63.90;;;;;;10287640;28;20031;-58
2021/01/20 09:29:59;;;;;;;11.85;2.35;;;18.00;64.20;;;;;;10284480;28;20106;-59
2021/01/20 09:35:03;;;;;;;7.88;2.13;;;18.10;64.10;;;;;;10282198;28;20392;-58
2021/01/20 09:40:16;;;;;;;12.93;2.38;;;18.10;64.00;;;;;;10261834;28;20027;-59
2021/01/20 09:45:26;;;;;;;6.95;1.80;;;18.10;63.90;;;;;;10255090;28;20066;-58
2021/01/20 09:50:33;;;;;;;7.70;2.08;;;18.10;64.00;;;;;;10289078;28;20480;-59
2021/01/20 09:55:33;;;;;;;5.93;2.15;;;18.10;64.30;;;;;;10282943;28;20039;-59
2021/01/20 10:00:36;;;;;;;4.07;1.77;;;18.10;63.60;;;;;;10286018;28;20027;-58
2021/01/20 10:05:36;;;;;;;5.15;1.95;;;18.00;63.10;;;;;;10296360;28;20050;-60
2021/01/20 10:10:37;;;;;;;6.45;1.90;;;18.00;63.40;;;;;;10287458;28;20127;-60
2021/01/20 10:15:39;;;;;;;6.57;2.10;;;17.90;63.90;;;;;;10277455;28;20045;-59
2021/01/20 10:20:40;;;;;;;5.72;1.30;;;17.90;64.00;;;;;;10277304;28;20027;-59
2021/01/20 10:25:41;;;;;;;6.43;1.88;;;17.90;63.80;;;;;;10278831;28;20038;-59
2021/01/20 10:30:41;;;;;;;7.38;1.65;;;17.80;63.80;;;;;;10270116;28;20619;-59
2021/01/20 10:35:42;;;;;;;7.78;1.88;;;17.80;63.70;;;;;;10267823;28;20060;-60
2021/01/20 10:40:43;;;;;;;3.55;2.00;;;17.90;63.60;;;;;;10302008;28;20023;-58
2021/01/20 10:45:44;;;;;;;5.25;1.88;;;17.90;64.20;;;;;;10265825;28;20034;-60
2021/01/20 10:50:45;;;;;;;2.78;1.38;;;17.90;64.00;;;;;;10288300;28;20435;-59
2021/01/20 10:55:47;;;;;;;7.43;1.88;;;17.90;63.80;;;;;;10280457;28;20038;-59
2021/01/20 11:00:51;;;;;;;5.68;1.92;;;17.90;64.10;;;;;;10288387;28;20023;-60
2021/01/20 11:05:52;;;;;;;6.28;1.80;;;17.90;64.30;;;;;;10299486;28;20042;-60
2021/01/20 11:10:53;;;;;;;5.95;1.90;;;17.90;64.50;;;;;;10310159;28;20488;-60
2021/01/20 11:15:54;;;;;;;8.65;2.08;;;17.90;64.50;;;;;;10291153;28;20104;-58
2021/01/20 11:20:54;;;;;;;8.63;1.98;;;17.90;64.50;;;;;;10289820;28;20019;-57
2021/01/20 11:25:55;;;;;;;9.48;2.20;;;17.90;64.90;;;;;;10291325;28;20045;-58
2021/01/20 11:30:56;;;;;;;15.40;2.33;;;17.80;64.90;;;;;;10291945;28;20042;-58
2021/01/20 11:35:56;;;;;;;8.80;2.25;;;17.80;65.20;;;;;;10276423;28;20394;-57
2021/01/20 11:40:57;;;;;;;7.78;1.60;;;17.80;65.60;;;;;;10272843;28;20034;-57
2021/01/20 11:45:58;;;;;;;8.75;1.60;;;17.80;66.20;;;;;;10265065;28;20748;-58
2021/01/20 11:50:58;;;;;;;6.93;1.52;;;17.80;65.60;;;;;;10286571;28;20163;-58
2021/01/20 11:55:59;;;;;;;6.47;2.05;;;17.70;65.70;;;;;;10292625;28;20501;-57
2021/01/20 12:01:00;;;;;;;4.00;1.73;;;17.80;66.00;;;;;;10280540;28;20076;-59
2021/01/20 12:06:01;;;;;;;7.05;1.63;;;17.80;65.90;;;;;;10278290;28;20410;-59
2021/01/20 12:11:01;;;;;;;10.30;2.50;;;17.80;65.50;;;;;;10277037;28;20069;-59
2021/01/20 12:16:02;;;;;;;9.70;1.73;;;17.70;65.50;;;;;;10264165;28;20122;-58
2021/01/20 12:21:03;;;;;;;9.50;1.70;;;17.70;65.90;;;;;;10278776;28;20105;-59
2021/01/20 12:26:03;;;;;;;12.68;1.98;;;17.70;65.40;;;;;;10289962;28;20031;-58
2021/01/20 12:31:04;;;;;;;12.40;2.47;;;17.70;65.00;;;;;;10288417;28;20122;-59
2021/01/20 12:36:06;;;;;;;14.35;2.13;;;17.70;64.50;;;;;;10279897;28;20119;-59
2021/01/20 12:41:06;;;;;;;7.60;1.77;;;17.70;64.00;;;;;;10262813;28;20027;-59
2021/01/20 12:46:07;;;;;;;3.55;1.33;;;17.70;64.00;;;;;;10283043;28;20404;-59
2021/01/20 12:51:08;;;;;;;7.68;2.05;;;17.80;64.10;;;;;;10284312;28;20537;-59
2021/01/20 12:56:09;;;;;;;4.15;1.90;;;17.80;63.90;;;;;;10283238;28;20074;-59
2021/01/20 13:01:10;;;;;;;8.55;1.73;;;17.80;63.70;;;;;;10284042;28;20038;-58
2021/01/20 13:06:10;;;;;;;7.03;2.03;;;17.80;63.60;;;;;;10282006;28;20035;-59
2021/01/20 13:11:11;;;;;;;5.93;1.27;;;17.80;63.50;;;;;;10275003;28;20098;-57
2021/01/20 13:16:12;;;;;;;2.90;1.83;;;17.90;63.40;;;;;;10271569;28;20481;-59
2021/01/20 13:21:15;;;;;;;4.55;1.67;;;17.90;63.10;;;;;;10279967;28;20434;-59
2021/01/20 13:26:16;;;;;;;7.40;1.52;;;17.90;63.10;;;;;;10286539;28;20027;-58
2021/01/20 13:31:17;;;;;;;4.25;1.20;;;17.90;63.70;;;;;;10285498;28;20436;-59
2021/01/20 13:36:18;;;;;;;4.45;1.48;;;17.90;63.00;;;;;;10283586;28;20067;-59
2021/01/20 13:41:19;;;;;;;4.88;1.83;;;17.90;62.90;;;;;;10259162;28;20368;-59
2021/01/20 13:46:20;;;;;;;5.60;1.52;;;18.00;62.80;;;;;;10281133;28;20109;-59
2021/01/20 13:51:21;;;;;;;3.10;1.13;;;18.00;62.70;;;;;;10286741;28;20030;-59
2021/01/20 13:56:21;;;;;;;3.33;1.20;;;18.00;62.60;;;;;;10280048;28;20035;-59
2021/01/20 14:01:23;;;;;;;4.90;1.13;;;18.00;62.60;;;;;;10279753;28;20047;-57
2021/01/20 14:06:24;;;;;;;6.47;1.63;;;17.90;63.10;;;;;;10287809;28;20041;-59
2021/01/20 14:11:24;;;;;;;4.72;1.75;;;17.90;63.50;;;;;;10276155;28;20106;-58
2021/01/20 14:16:25;;;;;;;4.63;1.20;;;17.90;63.80;;;;;;10269016;28;20031;-59
2021/01/20 14:21:26;;;;;;;5.63;1.30;;;18.00;63.80;;;;;;10262827;28;20058;-59
2021/01/20 14:26:26;;;;;;;5.43;1.20;;;18.00;64.10;;;;;;10284983;28;20042;-59
2021/01/20 14:31:27;;;;;;;5.93;1.77;;;18.00;63.80;;;;;;10288051;28;20101;-59
2021/01/20 14:36:29;;;;;;;4.43;1.40;;;18.00;63.50;;;;;;10285612;28;20035;-58
2021/01/20 14:41:31;;;;;;;6.25;1.40;;;18.00;63.60;;;;;;10276447;28;20030;-58
2021/01/20 14:46:33;;;;;;;3.47;1.73;;;18.00;63.80;;;;;;10292844;28;20027;-57
2021/01/20 14:51:33;;;;;;;6.10;1.80;;;18.10;63.20;;;;;;10295100;28;20090;-57
2021/01/20 14:56:34;;;;;;;12.10;1.58;;;18.00;63.30;;;;;;10290561;28;20126;-57
2021/01/20 15:01:35;;;;;;;3.05;1.23;;;17.90;63.20;;;;;;10292603;28;20081;-58
2021/01/20 15:06:36;;;;;;;10.20;1.80;;;17.90;63.20;;;;;;10290028;28;20114;-59
2021/01/20 15:11:37;;;;;;;8.60;1.98;;;17.80;63.00;;;;;;10265907;28;20038;-59
2021/01/20 15:16:37;;;;;;;5.80;1.30;;;17.90;63.00;;;;;;10270414;28;20044;-58
2021/01/20 15:21:39;;;;;;;3.92;1.30;;;17.90;62.90;;;;;;10262371;28;20090;-58
2021/01/20 15:26:40;;;;;;;6.55;1.30;;;17.90;62.70;;;;;;10300996;28;20379;-58
2021/01/20 15:31:41;;;;;;;6.63;1.60;;;17.90;62.60;;;;;;10290965;28;20033;-59
2021/01/20 15:36:41;;;;;;;8.02;1.20;;;18.00;62.30;;;;;;10282207;28;20118;-59
2021/01/20 15:41:42;;;;;;;4.63;1.67;;;18.00;62.20;;;;;;10264571;28;20463;-58
2021/01/20 15:46:43;;;;;;;2.13;1.00;;;18.00;62.10;;;;;;10259218;28;20447;-59
2021/01/20 15:51:43;;;;;;;5.47;1.40;;;18.00;61.90;;;;;;10288778;28;20106;-58
2021/01/20 15:56:44;;;;;;;4.25;1.60;;;18.00;62.00;;;;;;10306138;28;20055;-58
2021/01/20 16:01:45;;;;;;;6.90;1.52;;;17.90;62.20;;;;;;10288060;28;20046;-58
2021/01/20 16:06:47;;;;;;;3.92;1.20;;;18.00;62.40;;;;;;10281061;28;20109;-56
2021/01/20 16:11:49;;;;;;;5.90;1.50;;;18.00;62.20;;;;;;10277289;28;20034;-58
2021/01/20 16:16:49;;;;;;;6.13;1.33;;;18.00;62.60;;;;;;10280870;28;20428;-58
2021/01/20 16:21:50;;;;;;;7.40;1.80;;;18.00;62.60;;;;;;10276341;28;20178;-57
2021/01/20 16:26:51;;;;;;;6.93;1.52;;;17.90;63.10;;;;;;10282725;28;20034;-56
2021/01/20 16:31:51;;;;;;;8.65;1.33;;;17.90;62.80;;;;;;10288121;28;20054;-56
2021/01/20 16:36:52;;;;;;;5.63;1.55;;;17.90;62.60;;;;;;10267908;28;20114;-57
2021/01/20 16:41:53;;;;;;;8.23;1.83;;;17.90;62.80;;;;;;10270091;28;20134;-58
2021/01/20 16:46:54;;;;;;;6.20;2.10;;;17.90;63.10;;;;;;10290162;28;20026;-57
2021/01/20 16:51:54;;;;;;;6.53;2.25;;;17.90;61.90;;;;;;10291689;28;20113;-56
2021/01/20 16:56:55;;;;;;;6.60;2.63;;;17.90;61.40;;;;;;10285319;28;20146;-57
2021/01/20 17:01:56;;;;;;;9.18;2.50;;;18.00;61.20;;;;;;10286294;28;20114;-57
2021/01/20 17:06:57;;;;;;;6.00;3.05;;;18.10;60.40;;;;;;10285705;28;20043;-56
2021/01/20 17:11:58;;;;;;;4.35;2.45;;;18.10;60.50;;;;;;10290369;28;20042;-59
2021/01/20 17:16:59;;;;;;;4.18;2.00;;;18.10;60.20;;;;;;10293363;28;20069;-59
2021/01/20 17:21:59;;;;;;;4.88;2.30;;;18.30;61.90;;;;;;10292860;28;20463;-58
2021/01/20 17:27:00;;;;;;;7.47;2.25;;;18.30;62.30;;;;;;10293152;28;20433;-58
2021/01/20 17:32:01;;;;;;;3.47;1.73;;;18.20;61.90;;;;;;10286904;28;20030;-58
2021/01/20 17:37:02;;;;;;;7.10;2.40;;;18.20;62.60;;;;;;10273903;28;20042;-60
2021/01/20 17:42:03;;;;;;;8.23;2.25;;;18.10;62.10;;;;;;10275722;28;20023;-57
2021/01/20 17:47:04;;;;;;;4.20;2.25;;;18.10;62.30;;;;;;10272831;28;20108;-57
2021/01/20 17:52:05;;;;;;;7.07;2.35;;;18.10;62.90;;;;;;10281601;28;20027;-57
2021/01/20 17:57:06;;;;;;;5.53;2.15;;;18.10;63.10;;;;;;10283930;28;20408;-57
2021/01/20 18:02:07;;;;;;;4.45;2.30;;;18.10;63.90;;;;;;10271476;28;20050;-57
2021/01/20 18:07:07;;;;;;;3.50;2.00;;;18.10;63.10;;;;;;10284684;28;20061;-57
2021/01/20 18:12:08;;;;;;;6.05;1.70;;;18.00;63.00;;;;;;10294162;28;20114;-57
2021/01/20 18:17:09;;;;;;;5.82;1.75;;;18.00;63.00;;;;;;10291558;28;20026;-57
2021/01/20 18:22:10;;;;;;;7.03;2.10;;;17.90;63.10;;;;;;10292905;28;20138;-57
2021/01/20 18:27:10;;;;;;;5.75;2.10;;;17.90;63.30;;;;;;10294221;28;20096;-56
2021/01/20 18:32:11;;;;;;;5.22;1.50;;;17.90;62.90;;;;;;10297779;28;20443;-57
2021/01/20 18:37:12;;;;;;;5.47;1.80;;;17.90;63.20;;;;;;10282611;28;20034;-56
2021/01/20 18:42:13;;;;;;;6.70;1.85;;;17.90;63.20;;;;;;10278419;28;20034;-57
2021/01/20 18:47:14;;;;;;;8.55;2.33;;;17.90;62.90;;;;;;10294963;28;20491;-57
2021/01/20 18:52:15;;;;;;;5.72;1.60;;;17.90;63.20;;;;;;10291298;28;20526;-56
2021/01/20 18:57:15;;;;;;;8.27;1.98;;;17.90;63.90;;;;;;10288339;28;20039;-56
2021/01/20 19:02:16;;;;;;;4.30;1.95;;;17.90;63.10;;;;;;10281264;28;20043;-56
2021/01/20 19:07:17;;;;;;;5.95;1.90;;;17.90;63.10;;;;;;10277082;28;20069;-56
2021/01/20 19:12:18;;;;;;;3.83;1.83;;;17.90;63.10;;;;;;10289375;28;20041;-56
2021/01/20 19:17:19;;;;;;;4.78;1.90;;;17.90;63.00;;;;;;10292531;28;20027;-56
2021/01/20 19:22:20;;;;;;;7.53;2.13;;;17.90;62.70;;;;;;10291446;28;20038;-57
2021/01/20 19:27:21;;;;;;;4.63;2.10;;;18.00;62.80;;;;;;10306068;28;20130;-56
2021/01/20 19:32:22;;;;;;;5.90;1.50;;;18.00;62.60;;;;;;10291311;28;20025;-56
2021/01/20 19:37:22;;;;;;;4.45;1.50;;;18.00;62.50;;;;;;10291088;28;20027;-56
2021/01/20 19:42:23;;;;;;;13.15;1.90;;;18.00;62.50;;;;;;10292200;28;20101;-56
2021/01/20 19:47:24;;;;;;;4.18;1.98;;;18.00;62.60;;;;;;10287469;28;20130;-57
2021/01/20 19:52:25;;;;;;;6.32;1.98;;;18.00;62.60;;;;;;10289569;28;20030;-56
2021/01/20 19:57:25;;;;;;;6.10;1.63;;;17.90;62.50;;;;;;10289201;28;20535;-56
2021/01/20 20:02:26;;;;;;;5.75;1.75;;;18.00;62.60;;;;;;10294242;28;20120;-57
2021/01/20 20:07:27;;;;;;;4.95;1.65;;;17.90;62.50;;;;;;10293343;28;20038;-56
2021/01/20 20:12:27;;;;;;;4.10;1.45;;;17.90;62.60;;;;;;10292298;28;20122;-56
2021/01/20 20:17:31;;;;;;;3.97;1.92;;;18.00;62.70;;;;;;10290504;28;20106;-57
2021/01/20 20:22:32;;;;;;;4.47;1.30;;;18.00;62.70;;;;;;10290101;28;20030;-57
2021/01/20 20:27:34;;;;;;;5.55;1.80;;;17.90;62.70;;;;;;10289920;28;20098;-57
2021/01/20 20:32:34;;;;;;;3.53;1.35;;;17.90;63.40;;;;;;10291635;28;20035;-57
2021/01/20 20:37:36;;;;;;;7.88;1.67;;;17.90;63.50;;;;;;10292600;28;20524;-57
2021/01/20 20:42:37;;;;;;;5.13;1.60;;;17.90;63.60;;;;;;10287727;28;20049;-56
2021/01/20 20:47:38;;;;;;;4.30;1.48;;;17.90;63.60;;;;;;10292410;28;20038;-56
2021/01/20 20:52:39;;;;;;;3.78;1.42;;;17.90;63.60;;;;;;10287388;28;20034;-56
2021/01/20 20:57:40;;;;;;;4.68;1.40;;;17.90;63.60;;;;;;10290102;28;20042;-57
2021/01/20 21:02:40;;;;;;;1.95;1.10;;;17.90;63.60;;;;;;10289953;28;20130;-57
2021/01/20 21:07:41;;;;;;;4.13;1.50;;;17.90;63.50;;;;;;10290721;28;20026;-56
2021/01/20 21:12:44;;;;;;;5.68;1.85;;;17.90;63.50;;;;;;10284318;28;20031;-56
2021/01/20 21:17:44;;;;;;;3.13;1.90;;;17.90;63.20;;;;;;10285278;28;20062;-55
2021/01/20 21:22:45;;;;;;;5.05;1.30;;;17.90;63.10;;;;;;10281412;28;20110;-57
2021/01/20 21:27:46;;;;;;;5.25;1.50;;;17.90;63.00;;;;;;10288213;28;20078;-56
2021/01/20 21:32:47;;;;;;;2.80;1.23;;;17.90;62.80;;;;;;10285883;28;20507;-56
2021/01/20 21:37:48;;;;;;;4.38;1.48;;;17.90;62.60;;;;;;10265504;28;20432;-57
2021/01/20 21:42:48;;;;;;;4.05;1.55;;;17.90;62.50;;;;;;10256733;28;20031;-57
2021/01/20 21:47:49;;;;;;;5.55;1.38;;;17.90;62.30;;;;;;10273800;28;20093;-58
2021/01/20 21:52:50;;;;;;;1.95;1.08;;;18.00;62.20;;;;;;10286377;28;20113;-57
2021/01/20 21:57:50;;;;;;;4.63;2.05;;;18.00;62.10;;;;;;10281206;28;20062;-56
2021/01/20 22:02:51;;;;;;;5.68;1.50;;;18.00;62.00;;;;;;10281612;28;20047;-57
2021/01/20 22:07:52;;;;;;;2.92;1.65;;;18.00;61.90;;;;;;10269072;28;20125;-58
2021/01/20 22:12:52;;;;;;;4.70;2.03;;;18.00;61.90;;;;;;10271851;28;20381;-57
2021/01/20 22:17:53;;;;;;;4.25;1.50;;;18.00;61.80;;;;;;10255915;28;20081;-57
2021/01/20 22:22:54;;;;;;;5.13;1.98;;;18.00;61.70;;;;;;10266897;28;20458;-57
2021/01/20 22:27:54;;;;;;;3.42;1.50;;;18.00;61.60;;;;;;10284536;28;20130;-57
2021/01/20 22:32:55;;;;;;;4.35;1.40;;;18.00;61.50;;;;;;10283152;28;20074;-57
2021/01/20 22:37:56;;;;;;;2.30;1.15;;;18.00;61.50;;;;;;10266367;28;20110;-57
2021/01/20 22:42:56;;;;;;;3.65;1.30;;;18.00;61.50;;;;;;10258109;28;20122;-58
2021/01/20 22:47:57;;;;;;;2.13;1.10;;;18.00;61.40;;;;;;10274289;28;20038;-58
2021/01/20 22:52:58;;;;;;;3.53;1.13;;;18.00;61.30;;;;;;10286211;28;20077;-57
2021/01/20 22:57:58;;;;;;;1.85;1.00;;;18.00;61.20;;;;;;10285078;28;20097;-57
2021/01/20 23:02:59;;;;;;;2.17;0.93;;;18.00;61.10;;;;;;10286323;28;20063;-57
2021/01/20 23:08:01;;;;;;;2.30;1.15;;;18.00;61.00;;;;;;10276331;28;20027;-57
2021/01/20 23:13:02;;;;;;;4.03;1.30;;;18.00;60.90;;;;;;10270151;28;20039;-57
2021/01/20 23:18:04;;;;;;;1.70;0.80;;;18.00;60.90;;;;;;10264134;28;20043;-57
2021/01/20 23:23:05;;;;;;;2.08;0.80;;;18.00;60.90;;;;;;10263190;28;20129;-57
2021/01/20 23:28:05;;;;;;;1.73;0.90;;;18.00;60.90;;;;;;10291718;28;20061;-57
2021/01/20 23:33:06;;;;;;;2.30;1.00;;;18.00;60.80;;;;;;10286079;28;20041;-56
2021/01/20 23:38:07;;;;;;;2.15;0.80;;;18.00;60.80;;;;;;10269979;28;20070;-57
2021/01/20 23:43:07;;;;;;;2.47;0.98;;;18.00;60.80;;;;;;10263117;28;20055;-57
2021/01/20 23:48:08;;;;;;;2.25;1.23;;;18.00;60.80;;;;;;10281061;28;20121;-57
2021/01/20 23:53:09;;;;;;;3.53;1.10;;;18.00;60.70;;;;;;10291900;28;20033;-57
2021/01/20 23:58:10;;;;;;;1.95;1.05;;;18.00;60.60;;;;;;10290496;28;20034;-57
